Time;durP1;ratioP1;P1;durP2;ratioP2;P2;SDS_P1;SDS_P2;PMS_P1;PMS_P2;Temp;Humidity;BMP_temperature;BMP_pressure;BME280_temperature;BME280_humidity;BME280_pressure;Samples;Min_cycle;Max_cycle;Signal;HPM_P1;HPM_P2
2022/07/16 07:26:53;;;;;;;4.10;2.10;;;18.70;80.20;;;;;;5009025;27;21054;-76
2022/07/16 07:29:19;;;;;;;4.00;2.42;;;18.60;82.30;;;;;;5009469;28;20245;-76
2022/07/16 07:32:07;;;;;;;2.63;1.70;;;18.80;81.20;;;;;;5008310;28;20184;-76
2022/07/16 07:34:32;;;;;;;3.75;1.77;;;19.10;81.00;;;;;;5008175;28;20237;-76
2022/07/16 07:36:58;;;;;;;3.10;1.70;;;19.40;78.60;;;;;;5009094;28;20172;-76
2022/07/16 07:39:28;;;;;;;3.60;1.90;;;19.50;78.90;;;;;;5008073;28;20182;-76
2022/07/16 07:41:54;;;;;;;4.40;1.90;;;19.70;76.50;;;;;;5008067;28;20176;-76
2022/07/16 07:44:20;;;;;;;5.35;2.03;;;20.00;75.50;;;;;;5008614;28;20283;-76
2022/07/16 07:46:45;;;;;;;5.05;1.67;;;20.40;74.40;;;;;;5007709;28;20608;-76
2022/07/16 07:49:11;;;;;;;5.20;1.70;;;20.70;73.00;;;;;;5008489;28;20232;-76
2022/07/16 07:51:37;;;;;;;8.35;2.30;;;21.10;71.70;;;;;;5007492;28;20187;-76
2022/07/16 07:54:02;;;;;;;2.38;1.58;;;21.40;71.20;;;;;;5008029;28;20228;-76
2022/07/16 07:56:28;;;;;;;4.18;1.85;;;21.70;69.50;;;;;;5006903;28;20207;-76
2022/07/16 07:58:53;;;;;;;4.32;2.50;;;21.90;67.40;;;;;;5009492;28;20183;-76
2022/07/16 08:01:19;;;;;;;5.70;1.90;;;22.20;65.80;;;;;;5007276;28;20591;-76
2022/07/16 08:03:45;;;;;;;3.45;1.83;;;22.10;65.80;;;;;;5007798;28;20192;-77
2022/07/16 08:06:10;;;;;;;2.78;1.98;;;22.00;66.80;;;;;;5007016;28;20195;-76
2022/07/16 08:08:36;;;;;;;3.25;1.77;;;21.80;66.60;;;;;;5007609;28;20201;-77
2022/07/16 08:11:01;;;;;;;5.03;1.95;;;21.60;66.90;;;;;;5007039;28;20195;-77
2022/07/16 08:13:27;;;;;;;5.20;2.00;;;21.20;67.20;;;;;;5008316;28;20262;-76
2022/07/16 08:15:52;;;;;;;4.20;2.15;;;20.90;68.40;;;;;;5007266;28;20259;-76
2022/07/16 08:18:18;;;;;;;9.68;2.05;;;20.70;69.00;;;;;;5007184;28;20635;-77
2022/07/16 08:20:43;;;;;;;4.63;1.80;;;20.70;68.90;;;;;;5007183;28;20187;-77
2022/07/16 08:23:09;;;;;;;7.03;2.30;;;20.70;69.30;;;;;;5006732;28;20184;-77
2022/07/16 08:25:46;;;;;;;3.08;1.65;;;21.00;69.30;;;;;;5006244;28;20223;-76
2022/07/16 08:28:13;;;;;;;3.83;2.20;;;21.30;67.80;;;;;;5007049;28;20172;-76
2022/07/16 08:30:40;;;;;;;3.35;1.88;;;21.60;67.00;;;;;;5007439;28;20230;-76
2022/07/16 08:33:05;;;;;;;3.13;1.80;;;22.00;65.30;;;;;;5007557;28;20183;-76
2022/07/16 08:35:31;;;;;;;2.28;1.83;;;21.90;64.40;;;;;;5006731;28;20242;-76
2022/07/16 08:37:57;;;;;;;4.53;1.67;;;22.00;64.10;;;;;;4995065;28;20184;-76
2022/07/16 08:40:24;;;;;;;2.55;1.77;;;22.20;62.90;;;;;;4993839;28;20172;-76
2022/07/16 08:42:50;;;;;;;4.75;1.85;;;22.20;61.70;;;;;;4994914;28;20200;-77
2022/07/16 08:45:17;;;;;;;3.55;1.80;;;22.00;62.60;;;;;;4994281;28;20215;-76
2022/07/16 08:47:43;;;;;;;10.32;2.17;;;21.80;63.60;;;;;;4994280;28;20255;-76
2022/07/16 08:50:11;;;;;;;4.20;1.90;;;21.30;64.80;;;;;;4994256;28;20618;-77
2022/07/16 08:52:39;;;;;;;6.63;1.85;;;20.90;66.70;;;;;;4994218;28;20181;-76
2022/07/16 08:55:07;;;;;;;8.80;2.05;;;20.70;67.40;;;;;;4993891;28;20695;-76
2022/07/16 08:57:34;;;;;;;4.53;2.10;;;20.50;67.90;;;;;;4993092;28;20186;-77
2022/07/16 09:00:00;;;;;;;3.30;2.40;;;20.40;68.60;;;;;;4993570;28;20525;-76
2022/07/16 09:02:26;;;;;;;5.18;2.40;;;20.30;68.40;;;;;;4992428;28;20213;-76
2022/07/16 09:04:52;;;;;;;3.55;2.03;;;20.40;68.40;;;;;;4993936;28;20693;-76
2022/07/16 09:07:18;;;;;;;7.85;2.47;;;20.50;68.30;;;;;;4994257;28;20181;-76
2022/07/16 09:09:45;;;;;;;2.63;2.00;;;20.50;68.50;;;;;;4992539;28;20211;-77
2022/07/16 09:12:12;;;;;;;6.20;2.08;;;20.50;68.30;;;;;;4992693;28;20205;-77
2022/07/16 09:14:38;;;;;;;3.85;2.13;;;20.70;68.50;;;;;;4993072;28;20289;-76
2022/07/16 09:17:03;;;;;;;4.53;2.30;;;21.00;67.60;;;;;;4992452;28;20211;-76
2022/07/16 09:19:29;;;;;;;6.63;2.20;;;21.10;66.30;;;;;;4993658;28;20172;-76
2022/07/16 09:22:00;;;;;;;4.72;1.80;;;21.20;66.20;;;;;;4992965;28;20183;-76
2022/07/16 09:24:31;;;;;;;4.50;2.10;;;21.30;66.10;;;;;;4993548;28;20220;-76
2022/07/16 09:27:09;;;;;;;3.08;1.95;;;21.30;66.30;;;;;;4993304;28;20176;-76
2022/07/16 09:29:45;;;;;;;3.38;2.20;;;21.30;66.10;;;;;;4992313;28;20172;-76
2022/07/16 09:32:11;;;;;;;6.53;2.30;;;21.30;66.70;;;;;;4993124;28;20182;-76
2022/07/16 09:34:37;;;;;;;4.30;2.22;;;21.10;66.50;;;;;;4993033;28;20198;-76
2022/07/16 09:37:05;;;;;;;6.25;2.05;;;21.10;67.00;;;;;;4992597;28;20226;-76
2022/07/16 09:39:32;;;;;;;3.97;2.15;;;20.90;66.70;;;;;;4991867;28;20208;-76
2022/07/16 09:41:58;;;;;;;3.33;2.00;;;20.80;67.50;;;;;;4991653;28;20230;-76
2022/07/16 09:44:26;;;;;;;7.50;2.20;;;20.70;68.20;;;;;;4991932;28;20200;-76
2022/07/16 09:47:22;;;;;;;5.28;2.00;;;20.70;67.80;;;;;;4992254;28;20514;-76
2022/07/16 09:49:52;;;;;;;10.98;2.20;;;20.80;68.20;;;;;;5003227;28;20655;-76
2022/07/16 09:52:31;;;;;;;5.82;2.22;;;21.00;67.60;;;;;;4993233;28;20180;-76
2022/07/16 09:54:58;;;;;;;4.03;2.10;;;21.30;66.90;;;;;;4992414;28;20208;-76
2022/07/16 09:57:25;;;;;;;5.60;2.17;;;21.50;66.10;;;;;;4992196;28;20180;-77
2022/07/16 09:59:51;;;;;;;5.10;2.20;;;21.70;65.20;;;;;;4992922;28;20176;-77
2022/07/16 10:02:17;;;;;;;3.92;1.90;;;21.90;63.90;;;;;;4992110;28;20639;-77
2022/07/16 10:04:43;;;;;;;5.80;2.35;;;21.90;64.00;;;;;;4992905;28;20218;-76
2022/07/16 10:07:09;;;;;;;6.10;1.98;;;21.90;63.80;;;;;;4993274;28;20176;-76
2022/07/16 10:09:35;;;;;;;3.97;1.60;;;21.80;64.20;;;;;;4991569;28;20271;-76
2022/07/16 10:12:06;;;;;;;3.70;2.20;;;22.40;63.20;;;;;;4991632;28;20180;-76
2022/07/16 10:14:35;;;;;;;2.20;2.03;;;22.70;61.90;;;;;;4992105;28;20196;-76
2022/07/16 10:17:14;;;;;;;3.38;2.17;;;23.20;60.60;;;;;;4991858;28;20240;-76
2022/07/16 10:19:40;;;;;;;2.63;2.20;;;23.70;59.90;;;;;;4992161;28;20651;-76
2022/07/16 10:22:28;;;;;;;4.25;2.20;;;24.00;58.00;;;;;;4991833;28;20207;-76
2022/07/16 10:24:55;;;;;;;6.05;2.13;;;24.40;57.90;;;;;;4992103;28;20220;-77
2022/07/16 10:27:28;;;;;;;8.98;2.50;;;24.40;57.00;;;;;;4993158;28;20165;-77
2022/07/16 10:30:15;;;;;;;7.82;2.35;;;24.10;56.00;;;;;;4991492;28;20230;-77
2022/07/16 10:32:59;;;;;;;4.78;2.10;;;23.70;56.20;;;;;;4991207;28;20183;-77
2022/07/16 10:35:45;;;;;;;2.47;2.10;;;23.60;57.40;;;;;;4992256;28;20231;-76
2022/07/16 10:38:13;;;;;;;7.18;2.10;;;23.30;56.90;;;;;;4992963;28;20198;-76
2022/07/16 10:40:41;;;;;;;6.88;2.20;;;23.10;57.80;;;;;;4991267;28;20183;-76
2022/07/16 10:43:18;;;;;;;3.15;1.98;;;22.80;58.20;;;;;;4992875;28;20321;-76
2022/07/16 10:45:56;;;;;;;3.28;2.00;;;22.70;58.80;;;;;;4991427;28;20195;-76
2022/07/16 10:48:30;;;;;;;7.47;2.00;;;22.90;58.20;;;;;;4992270;28;20160;-76
2022/07/16 10:51:22;;;;;;;2.20;1.90;;;23.10;58.90;;;;;;4992663;28;20175;-76
2022/07/16 10:53:57;;;;;;;6.55;2.03;;;23.20;58.10;;;;;;4990691;28;20251;-76
2022/07/16 10:56:37;;;;;;;7.38;2.33;;;23.10;57.40;;;;;;4991474;28;20303;-76
2022/07/16 10:59:05;;;;;;;5.22;2.03;;;23.20;57.20;;;;;;4990901;28;20673;-76
2022/07/16 11:01:30;;;;;;;5.93;2.00;;;23.40;56.90;;;;;;4991538;28;20553;-76
2022/07/16 11:03:56;;;;;;;4.28;2.28;;;23.50;55.70;;;;;;4991707;28;20191;-76
2022/07/16 11:06:22;;;;;;;7.22;2.05;;;23.60;56.80;;;;;;4991033;28;20283;-76
2022/07/16 11:08:55;;;;;;;8.27;2.00;;;23.90;55.90;;;;;;4990802;28;20183;-76
2022/07/16 11:11:21;;;;;;;8.82;1.90;;;23.60;55.40;;;;;;4990768;28;20180;-76
2022/07/16 11:13:48;;;;;;;2.60;1.80;;;23.60;55.00;;;;;;4990444;28;20271;-76
2022/07/16 11:16:14;;;;;;;4.50;1.80;;;23.60;55.60;;;;;;4991929;28;20563;-76
2022/07/16 11:18:40;;;;;;;2.33;1.75;;;23.80;54.90;;;;;;4992278;28;20177;-76
2022/07/16 11:21:10;;;;;;;4.88;1.80;;;24.00;55.10;;;;;;4991449;28;20176;-76
2022/07/16 11:23:52;;;;;;;1.95;1.80;;;24.10;54.00;;;;;;4990426;28;20808;-76
2022/07/16 11:26:19;;;;;;;6.60;2.17;;;24.30;54.50;;;;;;4990340;28;20215;-76
2022/07/16 11:29:00;;;;;;;2.35;1.70;;;24.60;53.50;;;;;;4990526;28;20662;-77
2022/07/16 11:31:32;;;;;;;4.18;1.83;;;25.00;53.90;;;;;;4991649;28;20172;-76
2022/07/16 11:34:02;;;;;;;3.53;2.65;;;24.90;51.70;;;;;;4990375;28;20177;-77
2022/07/16 11:36:33;;;;;;;6.78;2.35;;;24.80;52.60;;;;;;4990160;28;20208;-76
2022/07/16 11:39:06;;;;;;;4.55;2.10;;;24.90;52.70;;;;;;4990982;28;20255;-76
2022/07/16 11:41:33;;;;;;;4.60;1.88;;;24.90;50.90;;;;;;4990843;28;20184;-76
2022/07/16 11:44:06;;;;;;;1.83;1.55;;;24.90;51.60;;;;;;4991808;28;20254;-76
2022/07/16 11:46:31;;;;;;;2.78;1.92;;;25.20;51.70;;;;;;4992466;28;20188;-76
2022/07/16 11:48:57;;;;;;;2.88;1.83;;;25.30;50.40;;;;;;4990595;28;20188;-76
2022/07/16 11:51:23;;;;;;;7.60;2.38;;;25.00;50.70;;;;;;4990235;28;20208;-76
2022/07/16 11:53:53;;;;;;;2.00;1.80;;;24.90;50.60;;;;;;4990247;28;20184;-76
2022/07/16 11:56:37;;;;;;;3.65;1.85;;;25.10;50.80;;;;;;4991321;28;20284;-76
2022/07/16 11:59:26;;;;;;;3.40;2.22;;;25.00;50.70;;;;;;4990773;28;20635;-76
2022/07/16 12:02:08;;;;;;;4.90;2.00;;;24.60;51.10;;;;;;4991151;28;20164;-76
2022/07/16 12:04:44;;;;;;;6.60;2.30;;;24.40;51.90;;;;;;4988102;28;20690;-76
2022/07/16 12:07:12;;;;;;;3.58;2.13;;;24.20;52.10;;;;;;4988374;28;20176;-76
2022/07/16 12:09:40;;;;;;;3.20;1.90;;;24.30;52.80;;;;;;4988931;28;20263;-76
2022/07/16 12:12:12;;;;;;;2.22;1.85;;;24.40;51.80;;;;;;4989104;28;20176;-76
2022/07/16 12:14:47;;;;;;;3.45;2.35;;;24.30;51.90;;;;;;4994217;28;20250;-76
2022/07/16 12:17:21;;;;;;;4.28;2.17;;;24.30;52.60;;;;;;4994654;28;20160;-76
2022/07/16 12:20:08;;;;;;;5.07;2.00;;;24.60;52.00;;;;;;4993490;28;20172;-76
2022/07/16 12:22:55;;;;;;;4.90;2.20;;;24.70;51.00;;;;;;4993908;28;20176;-76
2022/07/16 12:25:34;;;;;;;5.03;1.85;;;24.50;50.90;;;;;;4993323;28;20308;-77
2022/07/16 12:28:11;;;;;;;4.05;2.10;;;24.80;51.50;;;;;;4992630;28;20247;-77
2022/07/16 12:30:56;;;;;;;4.75;1.90;;;25.10;49.40;;;;;;4993095;28;20200;-77
2022/07/16 12:33:23;;;;;;;2.38;1.80;;;25.00;48.90;;;;;;4993225;28;20255;-77
2022/07/16 12:35:52;;;;;;;3.35;1.90;;;25.20;49.30;;;;;;4992320;28;20219;-76
2022/07/16 12:38:37;;;;;;;2.33;1.90;;;25.30;49.60;;;;;;4993177;28;20173;-76
2022/07/16 12:41:04;;;;;;;3.40;2.20;;;25.30;49.60;;;;;;4993004;28;20202;-76
2022/07/16 12:43:29;;;;;;;4.90;3.30;;;25.10;49.50;;;;;;4994175;28;20185;-76
2022/07/16 12:45:55;;;;;;;37.28;26.40;;;24.80;50.90;;;;;;4992875;28;20207;-76
2022/07/16 12:48:20;;;;;;;13.25;9.98;;;24.50;52.00;;;;;;4992990;28;20223;-76
2022/07/16 12:50:46;;;;;;;9.23;4.93;;;24.10;51.70;;;;;;4992617;28;20184;-76
2022/07/16 12:53:12;;;;;;;8.90;5.72;;;23.70;52.40;;;;;;4993141;28;20189;-76
2022/07/16 12:58:53;;;;;;;17.15;11.45;;;23.60;53.20;;;;;;4994163;28;20240;-76
2022/07/16 13:01:21;;;;;;;2.97;2.67;;;23.80;52.80;;;;;;4992540;28;20188;-76
2022/07/16 13:03:48;;;;;;;11.88;6.80;;;24.10;51.90;;;;;;4993266;28;20176;-76
2022/07/16 13:06:14;;;;;;;2.60;2.15;;;24.20;51.60;;;;;;4993403;28;20207;-76
2022/07/16 13:08:40;;;;;;;4.38;2.03;;;24.10;51.20;;;;;;4992355;28;20184;-76
2022/07/16 13:11:35;;;;;;;3.65;2.00;;;24.00;51.60;;;;;;4993594;28;20183;-76
2022/07/16 13:14:05;;;;;;;2.33;2.10;;;23.80;52.20;;;;;;4993480;28;20173;-76
2022/07/16 13:16:31;;;;;;;3.65;2.10;;;24.00;51.90;;;;;;4993089;28;20258;-77
2022/07/16 13:18:57;;;;;;;3.55;2.30;;;24.40;52.10;;;;;;4993121;28;20590;-76
2022/07/16 13:21:24;;;;;;;6.70;2.13;;;24.70;51.60;;;;;;4993497;28;20192;-76
2022/07/16 13:23:53;;;;;;;5.78;3.33;;;24.90;51.40;;;;;;4993192;28;20176;-76
2022/07/16 13:26:19;;;;;;;3.47;2.58;;;24.90;51.70;;;;;;4991924;28;20224;-76
2022/07/16 13:28:58;;;;;;;7.60;3.83;;;24.70;51.90;;;;;;4992238;28;20204;-76
2022/07/16 13:31:25;;;;;;;4.20;3.17;;;24.40;52.80;;;;;;4993157;28;20583;-76
2022/07/16 13:33:51;;;;;;;4.13;2.50;;;24.10;53.20;;;;;;4992027;28;20183;-76
2022/07/16 13:36:18;;;;;;;11.70;5.18;;;23.70;54.40;;;;;;4992798;28;20220;-76
2022/07/16 13:38:44;;;;;;;4.55;4.13;;;23.50;56.90;;;;;;4993043;28;20176;-76
2022/07/16 13:41:12;;;;;;;5.45;3.67;;;23.60;56.70;;;;;;4991821;28;20179;-76
2022/07/16 13:43:38;;;;;;;9.35;4.30;;;23.70;56.30;;;;;;4992979;28;20177;-76
2022/07/16 13:46:05;;;;;;;3.70;3.28;;;23.90;55.80;;;;;;4991780;28;20253;-76
2022/07/16 13:48:31;;;;;;;4.05;2.90;;;23.90;55.50;;;;;;4991660;28;20176;-76
2022/07/16 13:50:57;;;;;;;7.22;3.10;;;23.80;55.30;;;;;;4993291;28;20187;-76
2022/07/16 13:53:22;;;;;;;4.95;3.70;;;23.90;55.10;;;;;;4991771;28;20223;-77
2022/07/16 13:55:55;;;;;;;7.15;3.35;;;23.90;54.90;;;;;;4991560;28;20218;-76
2022/07/16 13:58:22;;;;;;;3.65;2.72;;;23.60;55.80;;;;;;4992412;28;20175;-77
2022/07/16 14:00:59;;;;;;;9.73;2.80;;;23.90;55.20;;;;;;4992252;28;20191;-76
2022/07/16 14:03:26;;;;;;;14.48;3.25;;;24.10;54.10;;;;;;4992391;28;20168;-77
2022/07/16 14:05:59;;;;;;;8.38;3.15;;;24.20;53.90;;;;;;4991974;28;20200;-77
2022/07/16 14:08:25;;;;;;;4.30;2.67;;;24.10;53.70;;;;;;4993781;28;20172;-76
2022/07/16 14:10:51;;;;;;;5.80;2.55;;;23.80;53.50;;;;;;4993233;28;20203;-76
2022/07/16 14:13:17;;;;;;;2.42;2.00;;;23.70;53.90;;;;;;4991552;28;20279;-76
2022/07/16 14:15:43;;;;;;;2.13;2.00;;;23.70;52.80;;;;;;4992006;28;20204;-76
2022/07/16 14:18:09;;;;;;;4.68;2.38;;;23.90;52.50;;;;;;4990566;28;20177;-76
2022/07/16 14:20:37;;;;;;;2.15;1.95;;;24.00;52.70;;;;;;4992987;28;20177;-76
2022/07/16 14:23:05;;;;;;;2.13;1.80;;;24.00;52.00;;;;;;4991581;28;20194;-76
2022/07/16 14:25:31;;;;;;;2.10;2.00;;;24.00;51.50;;;;;;4992150;28;20216;-76
2022/07/16 14:27:57;;;;;;;2.08;1.90;;;24.00;51.90;;;;;;4992981;28;20187;-76
2022/07/16 14:30:23;;;;;;;5.38;1.80;;;24.10;51.10;;;;;;4991775;28;20664;-77
2022/07/16 14:32:49;;;;;;;3.75;2.38;;;24.10;50.90;;;;;;4992228;28;20183;-77
2022/07/16 14:35:16;;;;;;;8.10;2.42;;;24.10;51.10;;;;;;4990366;28;20611;-77
2022/07/16 14:37:44;;;;;;;2.20;2.08;;;24.00;51.00;;;;;;4990849;28;20180;-77
2022/07/16 14:40:12;;;;;;;3.75;2.05;;;24.00;51.00;;;;;;4991272;28;20279;-77
2022/07/16 14:42:38;;;;;;;2.22;2.00;;;24.00;52.30;;;;;;4991517;28;20180;-77
2022/07/16 14:45:08;;;;;;;1.70;1.60;;;24.10;51.70;;;;;;4991069;28;20612;-76
2022/07/16 14:48:04;;;;;;;2.05;1.80;;;24.10;50.20;;;;;;4991072;28;20172;-76
2022/07/16 14:50:29;;;;;;;1.90;1.70;;;24.00;49.90;;;;;;4992195;28;20168;-76
2022/07/16 14:52:55;;;;;;;3.35;1.60;;;23.70;50.10;;;;;;4991878;28;20608;-76
2022/07/16 14:55:21;;;;;;;1.90;1.60;;;23.40;50.70;;;;;;4992101;28;20722;-76
2022/07/16 14:57:46;;;;;;;2.13;1.70;;;23.10;51.10;;;;;;4990801;28;20184;-76
2022/07/16 15:00:13;;;;;;;2.38;1.52;;;23.10;52.10;;;;;;4990909;28;20214;-77
2022/07/16 15:02:40;;;;;;;2.75;1.67;;;23.20;51.60;;;;;;4990625;28;20172;-76
2022/07/16 15:05:06;;;;;;;2.28;1.38;;;23.30;51.30;;;;;;4991257;28;20204;-76
2022/07/16 15:07:32;;;;;;;2.13;1.40;;;23.40;50.00;;;;;;4990861;28;20211;-76
2022/07/16 15:09:58;;;;;;;3.53;1.60;;;23.50;50.30;;;;;;4990986;28;20215;-76
2022/07/16 15:12:23;;;;;;;2.63;1.50;;;23.50;49.70;;;;;;4992107;28;20176;-76
2022/07/16 15:14:49;;;;;;;7.38;1.60;;;23.40;49.60;;;;;;4990581;28;20200;-76
2022/07/16 15:17:14;;;;;;;3.55;1.40;;;23.50;49.00;;;;;;4991298;28;20205;-76
2022/07/16 15:19:40;;;;;;;1.38;1.27;;;23.50;49.60;;;;;;4990553;28;20203;-76
2022/07/16 15:22:06;;;;;;;2.95;1.40;;;23.50;48.60;;;;;;4991897;28;20180;-76
2022/07/16 15:24:32;;;;;;;1.40;1.30;;;23.50;48.50;;;;;;4991824;28;20198;-77
2022/07/16 15:26:58;;;;;;;3.13;1.25;;;23.40;47.20;;;;;;4991996;28;20647;-77
2022/07/16 15:29:23;;;;;;;3.00;1.40;;;23.40;47.50;;;;;;4990507;28;20254;-76
2022/07/16 15:31:49;;;;;;;2.03;1.38;;;23.30;47.60;;;;;;4991165;28;20187;-78
2022/07/16 15:34:14;;;;;;;2.92;1.17;;;23.20;46.80;;;;;;4990264;28;20184;-77
2022/07/16 15:36:42;;;;;;;1.65;1.40;;;23.10;46.50;;;;;;4990489;28;20265;-76
2022/07/16 15:39:07;;;;;;;1.83;1.20;;;23.00;47.40;;;;;;4990739;28;20172;-76
2022/07/16 15:41:34;;;;;;;1.77;1.40;;;22.90;48.50;;;;;;4990772;28;20692;-76
2022/07/16 15:44:00;;;;;;;1.30;1.20;;;22.90;46.90;;;;;;4990434;28;20183;-77
2022/07/16 15:46:25;;;;;;;3.97;1.40;;;23.10;46.90;;;;;;4990286;28;20192;-76
2022/07/16 15:48:51;;;;;;;2.17;1.45;;;23.10;47.10;;;;;;4994060;28;20180;-75
2022/07/16 15:51:17;;;;;;;4.18;1.70;;;23.10;47.40;;;;;;4994862;28;20214;-76
2022/07/16 15:53:42;;;;;;;5.13;1.58;;;23.10;45.90;;;;;;4993290;28;20623;-76
2022/07/16 15:56:08;;;;;;;4.97;1.63;;;23.10;46.60;;;;;;4993521;28;20554;-76
2022/07/16 15:58:35;;;;;;;2.15;1.45;;;23.10;47.30;;;;;;4993414;28;20172;-76
2022/07/16 16:01:01;;;;;;;1.98;1.20;;;23.10;45.30;;;;;;4993318;28;20176;-76
2022/07/16 16:03:26;;;;;;;1.90;1.17;;;23.10;45.70;;;;;;4994373;28;20185;-76
2022/07/16 16:05:52;;;;;;;1.42;1.27;;;23.00;45.60;;;;;;4993026;28;20200;-76
2022/07/16 16:08:18;;;;;;;1.10;1.10;;;23.00;44.80;;;;;;4993106;28;20648;-76
2022/07/16 16:10:45;;;;;;;1.40;1.30;;;22.90;45.40;;;;;;4994562;28;20199;-76
2022/07/16 16:13:11;;;;;;;1.48;1.38;;;22.90;46.40;;;;;;4994288;28;20177;-77
2022/07/16 16:15:36;;;;;;;1.50;1.35;;;22.80;46.40;;;;;;4993235;28;20554;-76
2022/07/16 16:18:02;;;;;;;1.55;1.20;;;22.70;45.50;;;;;;4993966;28;20176;-77
2022/07/16 16:20:28;;;;;;;1.67;1.33;;;22.60;46.50;;;;;;4993024;28;20187;-77
2022/07/16 16:22:54;;;;;;;2.58;1.20;;;22.60;46.70;;;;;;4993163;28;20176;-77
2022/07/16 16:25:21;;;;;;;3.90;1.20;;;22.60;46.50;;;;;;4994074;28;20721;-77
2022/07/16 16:27:47;;;;;;;3.05;1.45;;;22.60;46.50;;;;;;4993033;28;20177;-77
2022/07/16 16:30:13;;;;;;;1.30;1.20;;;22.60;46.90;;;;;;4993131;28;20291;-76
2022/07/16 16:32:39;;;;;;;1.00;1.00;;;22.60;46.80;;;;;;4994273;28;20214;-76
2022/07/16 16:35:05;;;;;;;1.20;1.17;;;22.50;47.10;;;;;;4994346;28;20211;-76
2022/07/16 16:37:30;;;;;;;2.22;1.40;;;22.60;46.00;;;;;;4992938;28;20183;-76
2022/07/16 16:39:56;;;;;;;5.38;1.10;;;22.60;46.00;;;;;;4992954;28;20553;-76
2022/07/16 16:42:21;;;;;;;1.30;1.20;;;22.60;46.60;;;;;;4993096;28;20187;-76
2022/07/16 16:44:47;;;;;;;1.75;1.30;;;22.50;46.30;;;;;;4993455;28;20224;-76
2022/07/16 16:47:13;;;;;;;1.88;1.30;;;22.50;47.30;;;;;;4994420;28;20183;-76
2022/07/16 16:49:40;;;;;;;3.42;1.20;;;22.40;48.40;;;;;;4993850;28;20180;-76
2022/07/16 16:52:05;;;;;;;4.65;1.20;;;22.40;47.80;;;;;;4993655;28;20176;-76
2022/07/16 16:54:31;;;;;;;7.53;1.73;;;22.30;48.60;;;;;;4994153;28;20257;-77
2022/07/16 16:56:57;;;;;;;3.13;1.40;;;22.20;49.00;;;;;;4993526;28;20212;-76
2022/07/16 16:59:23;;;;;;;3.47;1.38;;;22.20;48.20;;;;;;4992298;28;20180;-82
2022/07/16 17:01:48;;;;;;;5.85;1.45;;;22.20;47.70;;;;;;4992818;28;20598;-76
2022/07/16 17:04:14;;;;;;;2.28;1.20;;;22.20;48.00;;;;;;4992541;28;20165;-76
2022/07/16 17:06:41;;;;;;;1.20;1.20;;;22.20;47.20;;;;;;4993094;28;20238;-76
2022/07/16 17:09:07;;;;;;;2.70;1.48;;;22.10;47.40;;;;;;4992799;28;20267;-76
2022/07/16 17:11:33;;;;;;;4.38;1.80;;;22.10;47.60;;;;;;4993350;28;20184;-77
2022/07/16 17:13:59;;;;;;;3.25;1.50;;;22.00;47.50;;;;;;4994065;28;20187;-77
2022/07/16 17:16:25;;;;;;;4.57;1.33;;;22.00;46.90;;;;;;4992732;28;20208;-77
2022/07/16 17:19:02;;;;;;;8.18;1.90;;;22.00;46.80;;;;;;4992751;28;20181;-77
2022/07/16 17:21:32;;;;;;;6.72;1.83;;;21.90;47.10;;;;;;4993915;28;20179;-77
2022/07/16 17:23:57;;;;;;;4.05;1.52;;;21.90;46.90;;;;;;4992743;28;20183;-77
2022/07/16 17:26:23;;;;;;;2.70;1.45;;;21.90;47.40;;;;;;4992630;28;20216;-77
2022/07/16 17:28:49;;;;;;;1.30;1.20;;;21.90;47.80;;;;;;4993649;28;20185;-77
2022/07/16 17:31:14;;;;;;;1.73;1.30;;;21.80;47.80;;;;;;4992365;28;20191;-78
2022/07/16 17:33:40;;;;;;;4.53;2.00;;;21.70;47.50;;;;;;4992732;28;20188;-77
2022/07/16 17:36:06;;;;;;;3.63;1.60;;;21.70;47.70;;;;;;4992362;28;20218;-77
2022/07/16 17:38:31;;;;;;;2.95;1.20;;;21.60;47.10;;;;;;4992640;28;20180;-77
2022/07/16 17:40:57;;;;;;;1.48;1.38;;;21.50;47.90;;;;;;4991359;28;20189;-77
2022/07/16 17:44:00;;;;;;;1.70;1.40;;;21.40;48.40;;;;;;4980433;28;20185;-77
2022/07/16 17:46:26;;;;;;;1.50;1.40;;;21.30;48.50;;;;;;4972208;28;20180;-76
2022/07/16 17:51:36;;;;;;;2.65;1.40;;;21.20;49.20;;;;;;4978130;28;20187;-76
2022/07/16 17:54:12;;;;;;;3.13;1.35;;;21.10;48.80;;;;;;4991851;28;20184;-77
2022/07/16 17:56:38;;;;;;;3.67;1.50;;;21.10;48.30;;;;;;4991586;28;20210;-77
2022/07/16 17:59:03;;;;;;;1.50;1.40;;;21.00;49.10;;;;;;4990243;28;20172;-77
2022/07/16 18:01:29;;;;;;;3.28;1.60;;;21.00;49.20;;;;;;4992687;28;20251;-77
2022/07/16 18:03:54;;;;;;;3.20;1.50;;;20.80;49.50;;;;;;4992994;28;20531;-77
2022/07/16 18:06:45;;;;;;;4.78;1.65;;;20.90;49.20;;;;;;4991637;28;20206;-76
2022/07/16 18:09:11;;;;;;;12.25;1.85;;;20.80;49.70;;;;;;4990774;28;20173;-76
2022/07/16 18:11:37;;;;;;;2.47;1.27;;;20.80;48.20;;;;;;4992572;28;20180;-77
2022/07/16 18:14:28;;;;;;;4.00;1.70;;;20.80;47.60;;;;;;4992492;28;20238;-77
2022/07/16 18:16:55;;;;;;;3.00;1.58;;;20.70;48.00;;;;;;4992356;28;20204;-76
2022/07/16 18:19:21;;;;;;;2.30;1.23;;;20.60;49.20;;;;;;4993601;28;20168;-76
2022/07/16 18:21:47;;;;;;;5.97;1.60;;;20.50;49.10;;;;;;4992250;28;20285;-78
2022/07/16 18:24:15;;;;;;;1.30;1.20;;;20.40;49.50;;;;;;4993215;28;20173;-77
2022/07/16 18:26:41;;;;;;;1.80;1.40;;;20.40;49.70;;;;;;4992186;28;20200;-77
2022/07/16 18:29:11;;;;;;;2.05;1.58;;;20.30;49.90;;;;;;4991843;28;20180;-77
2022/07/16 18:31:37;;;;;;;4.78;1.60;;;20.20;50.00;;;;;;4993610;28;20164;-77
2022/07/16 18:34:03;;;;;;;3.08;1.40;;;20.10;50.60;;;;;;4991873;28;20191;-77
2022/07/16 18:36:29;;;;;;;3.47;1.17;;;20.00;51.20;;;;;;4991822;28;20208;-77
2022/07/16 18:38:54;;;;;;;3.85;1.52;;;19.90;51.40;;;;;;4992230;28;20176;-77
2022/07/16 18:41:20;;;;;;;4.78;1.52;;;19.80;51.90;;;;;;4992778;28;20183;-77
2022/07/16 18:43:52;;;;;;;3.42;1.55;;;19.70;52.40;;;;;;4991579;28;20234;-77
2022/07/16 18:46:17;;;;;;;2.53;1.40;;;19.60;52.50;;;;;;4993116;28;20357;-77
2022/07/16 18:48:43;;;;;;;1.67;1.48;;;19.60;52.90;;;;;;4991743;28;20598;-78
2022/07/16 18:51:09;;;;;;;8.48;1.95;;;19.50;53.30;;;;;;4991361;28;20184;-77
2022/07/16 18:53:34;;;;;;;6.13;1.90;;;19.40;56.10;;;;;;4991493;28;20184;-77
2022/07/16 18:56:00;;;;;;;7.13;1.83;;;19.30;56.20;;;;;;4990993;28;20212;-77
2022/07/16 18:58:52;;;;;;;5.78;1.60;;;19.20;55.60;;;;;;4990815;28;20200;-77
2022/07/16 19:01:18;;;;;;;4.28;1.38;;;19.10;56.60;;;;;;4990982;28;20195;-77
2022/07/16 19:03:44;;;;;;;5.50;1.50;;;19.00;55.70;;;;;;4990685;28;20211;-77
2022/07/16 19:06:09;;;;;;;2.50;1.55;;;18.80;56.60;;;;;;4990703;28;20287;-77
2022/07/16 19:09:11;;;;;;;3.85;1.70;;;18.70;58.30;;;;;;4990419;28;20180;-77
2022/07/16 19:11:37;;;;;;;2.45;1.70;;;18.60;59.40;;;;;;4991091;28;20241;-77
2022/07/16 19:14:03;;;;;;;6.80;1.63;;;18.50;59.20;;;;;;4990603;28;20275;-77
2022/07/16 19:16:34;;;;;;;3.35;1.45;;;18.40;58.90;;;;;;4990318;28;20207;-77
2022/07/16 19:19:29;;;;;;;7.50;1.85;;;18.20;60.20;;;;;;4991798;28;20512;-77
2022/07/16 19:21:55;;;;;;;4.25;1.60;;;18.10;58.60;;;;;;4991823;28;20161;-77
2022/07/16 19:24:20;;;;;;;7.07;1.80;;;18.00;59.80;;;;;;4990363;28;20207;-77
2022/07/16 19:26:46;;;;;;;5.47;1.73;;;17.90;60.60;;;;;;4990696;28;20252;-77
2022/07/16 19:29:12;;;;;;;5.53;1.50;;;17.80;60.70;;;;;;4990870;28;20666;-77
2022/07/16 19:31:39;;;;;;;4.38;1.90;;;17.70;59.90;;;;;;4992092;28;20273;-77
2022/07/16 19:37:26;;;;;;;7.78;2.10;;;17.50;61.00;;;;;;4992084;28;20195;-78
2022/07/16 19:39:53;;;;;;;4.57;1.63;;;17.40;70.00;;;;;;4990749;28;20176;-77
2022/07/16 19:42:18;;;;;;;4.82;1.80;;;17.30;62.90;;;;;;4992614;28;20169;-77
2022/07/16 19:45:26;;;;;;;7.00;1.73;;;17.20;63.80;;;;;;4990741;28;20192;-77
2022/07/16 19:47:59;;;;;;;5.22;1.70;;;17.10;62.30;;;;;;4991102;28;20180;-77
2022/07/16 19:50:48;;;;;;;5.88;1.60;;;17.10;63.60;;;;;;4991127;28;20649;-77
2022/07/16 19:53:15;;;;;;;3.55;1.70;;;17.00;63.30;;;;;;4990167;28;20178;-77
2022/07/16 19:58:25;;;;;;;2.40;1.50;;;16.80;64.80;;;;;;4991898;28;20164;-76
2022/07/16 20:00:54;;;;;;;5.00;1.65;;;16.80;65.40;;;;;;4990046;28;20173;-77
2022/07/16 20:03:20;;;;;;;4.32;1.63;;;16.70;63.50;;;;;;4990548;28;20651;-77
2022/07/16 20:05:45;;;;;;;2.10;1.45;;;16.60;63.40;;;;;;4990702;28;20201;-77
2022/07/16 20:08:11;;;;;;;4.47;1.73;;;16.50;63.90;;;;;;4990155;28;20554;-77
2022/07/16 20:10:36;;;;;;;3.78;1.50;;;16.50;64.20;;;;;;4991448;28;20181;-77
2022/07/16 20:13:03;;;;;;;1.83;1.33;;;16.40;64.70;;;;;;4990138;28;20723;-77
2022/07/16 20:15:29;;;;;;;3.50;1.70;;;16.30;65.00;;;;;;4990076;28;20215;-77
2022/07/16 20:17:58;;;;;;;2.03;1.40;;;16.20;65.30;;;;;;4990675;28;20267;-77
2022/07/16 20:20:24;;;;;;;2.17;1.45;;;16.10;65.50;;;;;;4990119;28;20173;-77
2022/07/16 20:22:50;;;;;;;4.03;1.70;;;16.10;65.90;;;;;;4990241;28;20184;-77
2022/07/16 20:25:17;;;;;;;1.65;1.50;;;16.00;65.90;;;;;;4990681;28;20208;-77
2022/07/16 20:27:44;;;;;;;4.88;1.70;;;15.90;66.20;;;;;;4990742;28;20172;-77
2022/07/16 20:30:53;;;;;;;4.22;1.42;;;15.80;66.60;;;;;;4990854;28;20177;-77
2022/07/16 20:33:18;;;;;;;3.08;1.50;;;15.70;67.10;;;;;;4991365;28;20260;-77